createdAt,value
2022-10-12T00:00:40.037Z,7.30
2022-10-12T00:03:06.453Z,5.35
2022-10-12T00:05:32.793Z,5.70
2022-10-12T00:07:59.270Z,5.45
2022-10-12T00:10:25.587Z,4.07
2022-10-12T00:12:51.914Z,7.03
2022-10-12T00:15:18.277Z,4.70
2022-10-12T00:17:44.571Z,7.28
2022-10-12T00:20:11.185Z,6.20
2022-10-12T00:22:37.516Z,4.22
2022-10-12T00:25:04.076Z,4.95
2022-10-12T00:27:30.434Z,3.40
2022-10-12T00:29:56.741Z,7.85
2022-10-12T00:32:23.054Z,4.30
2022-10-12T00:34:49.373Z,7.18
2022-10-12T00:37:15.689Z,4.80
2022-10-12T00:39:42.074Z,5.45
2022-10-12T00:42:11.025Z,8.82
2022-10-12T00:44:39.152Z,6.93
2022-10-12T00:47:07.936Z,5.90
2022-10-12T00:49:34.493Z,4.18
2022-10-12T00:52:02.787Z,3.17
2022-10-12T00:54:32.070Z,4.82
2022-10-12T00:56:58.964Z,8.10
2022-10-12T00:59:28.455Z,6.15
2022-10-12T01:01:55.743Z,5.25
2022-10-12T01:04:23.071Z,5.53
2022-10-12T01:06:49.808Z,4.10
2022-10-12T01:09:16.340Z,5.45
2022-10-12T01:11:42.680Z,7.05
2022-10-12T01:14:09.113Z,7.95
2022-10-12T01:16:43.580Z,3.72
2022-10-12T01:19:28.693Z,3.83
2022-10-12T01:22:01.949Z,4.07
2022-10-12T01:24:48.542Z,2.90
2022-10-12T01:27:24.215Z,6.53
2022-10-12T01:30:09.469Z,4.93
2022-10-12T01:32:54.589Z,5.28
2022-10-12T01:35:21.044Z,5.53
2022-10-12T01:37:50.416Z,4.82
2022-10-12T01:40:21.661Z,6.55
2022-10-12T01:42:48.384Z,3.67
2022-10-12T01:45:16.354Z,11.38
2022-10-12T01:47:44.122Z,7.25
2022-10-12T01:50:12.682Z,5.40
2022-10-12T01:52:43.236Z,3.72
2022-10-12T01:55:28.620Z,7.45
2022-10-12T01:58:13.813Z,5.70
2022-10-12T02:00:46.812Z,5.80
2022-10-12T02:03:20.239Z,4.70
2022-10-12T02:05:56.717Z,4.80
2022-10-12T02:08:24.982Z,7.53
2022-10-12T02:11:03.447Z,1.83
2022-10-12T02:13:31.516Z,5.13
2022-10-12T02:15:59.085Z,5.35
2022-10-12T02:18:26.016Z,7.30
2022-10-12T02:20:53.926Z,5.90
2022-10-12T02:23:21.694Z,3.72
2022-10-12T02:25:49.729Z,5.32
2022-10-12T02:28:18.348Z,6.32
2022-10-12T02:30:52.393Z,3.38
2022-10-12T02:33:39.025Z,4.13
2022-10-12T02:36:08.818Z,4.85
2022-10-12T02:38:38.228Z,7.82
2022-10-12T02:41:05.966Z,6.00
2022-10-12T02:43:48.504Z,3.95
2022-10-12T02:46:15.929Z,5.05
2022-10-12T02:48:43.898Z,8.10
2022-10-12T02:51:10.901Z,7.30
2022-10-12T02:53:37.733Z,5.60
2022-10-12T02:56:05.786Z,5.45
2022-10-12T02:58:32.126Z,7.25
2022-10-12T03:00:58.768Z,6.93
2022-10-12T03:03:25.366Z,3.83
2022-10-12T03:05:51.677Z,4.85
2022-10-12T03:08:17.996Z,4.72
2022-10-12T03:10:44.297Z,5.80
2022-10-12T03:13:10.620Z,8.65
2022-10-12T03:15:36.956Z,5.45
2022-10-12T03:18:03.312Z,6.97
2022-10-12T03:20:29.779Z,5.72
2022-10-12T03:22:56.152Z,4.93
2022-10-12T03:25:22.509Z,4.50
2022-10-12T03:27:48.849Z,6.88
2022-10-12T03:30:15.202Z,4.20
2022-10-12T03:32:41.564Z,5.57
2022-10-12T03:35:08.183Z,8.75
2022-10-12T03:37:34.624Z,8.77
2022-10-12T03:40:00.931Z,6.05
2022-10-12T03:42:27.264Z,5.72
2022-10-12T03:44:53.593Z,8.82
2022-10-12T03:47:19.925Z,5.47
2022-10-12T03:49:46.410Z,8.10
2022-10-12T03:52:12.870Z,6.78
2022-10-12T03:54:39.206Z,8.57
2022-10-12T03:57:05.510Z,5.40
2022-10-12T03:59:31.810Z,4.07
2022-10-12T04:01:58.117Z,4.43
2022-10-12T04:04:24.447Z,8.50
2022-10-12T04:06:50.792Z,7.30
2022-10-12T04:09:17.152Z,5.15
2022-10-12T04:11:43.467Z,5.85
2022-10-12T04:14:09.826Z,7.45
2022-10-12T04:16:36.256Z,7.10
2022-10-12T04:19:02.677Z,5.53
2022-10-12T04:21:30.578Z,5.03
2022-10-12T04:23:57.437Z,9.07
2022-10-12T04:26:23.789Z,7.68
2022-10-12T04:28:50.205Z,9.77
2022-10-12T04:31:16.644Z,5.43
2022-10-12T04:33:43.001Z,6.43
2022-10-12T04:36:10.802Z,10.30
2022-10-12T04:38:37.234Z,6.80
2022-10-12T04:41:03.905Z,4.40
2022-10-12T04:43:30.255Z,10.27
2022-10-12T04:45:57.592Z,4.90
2022-10-12T04:48:24.352Z,8.52
2022-10-12T04:50:51.014Z,10.18
2022-10-12T04:53:17.447Z,9.90
2022-10-12T04:55:43.755Z,8.45
2022-10-12T04:58:10.112Z,9.88
2022-10-12T05:00:36.433Z,7.85
2022-10-12T05:03:03.610Z,7.10
2022-10-12T05:05:29.920Z,11.52
2022-10-12T05:07:56.261Z,8.52
2022-10-12T05:10:22.577Z,10.85
2022-10-12T05:12:48.877Z,10.20
2022-10-12T05:15:15.185Z,10.40
2022-10-12T05:17:41.578Z,8.05
2022-10-12T05:20:08.417Z,9.38
2022-10-12T05:22:34.757Z,9.38
2022-10-12T05:25:01.102Z,10.38
2022-10-12T05:27:27.805Z,11.52
2022-10-12T05:29:54.164Z,10.60
2022-10-12T05:32:20.513Z,11.30
2022-10-12T05:34:46.925Z,8.43
2022-10-12T05:37:13.328Z,12.82
2022-10-12T05:39:39.684Z,11.38
2022-10-12T05:42:06.313Z,12.50
2022-10-12T05:44:32.637Z,9.40
2022-10-12T05:46:58.966Z,10.63
2022-10-12T05:49:25.333Z,11.40
2022-10-12T05:51:51.648Z,13.82
2022-10-12T05:54:17.973Z,10.52
2022-10-12T05:56:44.281Z,14.45
2022-10-12T05:59:10.967Z,9.68
2022-10-12T06:01:37.397Z,12.70
2022-10-12T06:04:03.799Z,11.82
2022-10-12T06:06:30.125Z,11.80
2022-10-12T06:08:56.449Z,13.02
2022-10-12T06:11:22.987Z,13.85
2022-10-12T06:13:49.386Z,11.25
2022-10-12T06:16:20.660Z,18.27
2022-10-12T06:18:47.069Z,13.45
2022-10-12T06:21:33.357Z,13.30
2022-10-12T06:24:01.347Z,14.38
2022-10-12T06:26:27.719Z,13.98
2022-10-12T06:28:54.069Z,16.58
2022-10-12T06:31:20.649Z,13.23
2022-10-12T06:33:46.981Z,15.70
2022-10-12T06:36:13.325Z,21.52
2022-10-12T06:38:39.650Z,14.18
2022-10-12T06:41:05.991Z,21.38
2022-10-12T06:43:32.299Z,14.85
2022-10-12T06:46:02.139Z,23.58
2022-10-12T06:48:28.585Z,17.35
2022-10-12T06:50:54.978Z,19.90
2022-10-12T06:53:22.013Z,21.02
2022-10-12T06:55:48.353Z,23.00
2022-10-12T06:58:14.677Z,18.33
2022-10-12T07:00:40.995Z,19.83
2022-10-12T07:03:07.364Z,27.17
2022-10-12T07:05:33.706Z,23.08
2022-10-12T07:08:00.025Z,18.13
2022-10-12T07:10:26.422Z,21.13
2022-10-12T07:12:52.773Z,15.90
2022-10-12T07:15:19.098Z,18.52
2022-10-12T07:17:45.434Z,20.92
2022-10-12T07:20:11.809Z,18.17
2022-10-12T07:22:38.153Z,15.05
2022-10-12T07:25:04.712Z,18.17
2022-10-12T07:27:31.110Z,16.00
2022-10-12T07:29:57.449Z,16.35
2022-10-12T07:32:23.777Z,15.07
2022-10-12T07:34:50.098Z,15.73
2022-10-12T07:37:16.582Z,17.33
2022-10-12T07:39:43.134Z,12.75
2022-10-12T07:42:09.432Z,14.85
2022-10-12T07:44:35.849Z,11.85
2022-10-12T07:47:02.240Z,14.90
2022-10-12T07:49:28.726Z,16.15
2022-10-12T07:54:56.318Z,14.60
2022-10-12T07:57:27.641Z,17.58
2022-10-12T08:02:40.343Z,13.27
2022-10-12T08:05:06.965Z,16.90
2022-10-12T08:07:33.343Z,15.38
2022-10-12T08:09:59.654Z,17.52
2022-10-12T08:12:26.053Z,16.08
2022-10-12T08:14:52.370Z,14.68
2022-10-12T08:17:18.678Z,15.73
2022-10-12T08:19:45.064Z,13.80
2022-10-12T08:22:12.410Z,13.40
2022-10-12T08:24:38.802Z,13.13
2022-10-12T08:27:05.137Z,16.63
2022-10-12T08:29:31.444Z,16.60
2022-10-12T08:31:57.811Z,12.27
2022-10-12T08:34:25.199Z,15.13
2022-10-12T08:36:51.878Z,15.52
2022-10-12T08:39:18.216Z,15.52
2022-10-12T08:41:50.569Z,16.48
2022-10-12T08:44:37.002Z,14.95
2022-10-12T08:47:23.581Z,12.18
2022-10-12T08:49:50.420Z,17.15
2022-10-12T08:52:31.580Z,18.95
2022-10-12T08:55:05.169Z,21.00
2022-10-12T08:57:31.505Z,14.93
2022-10-12T08:59:58.985Z,17.60
2022-10-12T09:02:25.264Z,13.63
2022-10-12T09:04:54.652Z,21.98
2022-10-12T09:07:33.529Z,17.40
2022-10-12T09:09:59.810Z,17.20
2022-10-12T09:12:44.854Z,14.32
2022-10-12T09:15:16.308Z,13.38
2022-10-12T09:17:46.081Z,18.55
2022-10-12T09:20:31.374Z,19.50
2022-10-12T09:23:04.203Z,17.67
2022-10-12T09:25:30.654Z,19.70
2022-10-12T09:28:05.025Z,16.50
2022-10-12T09:30:32.773Z,14.02
2022-10-12T09:33:05.022Z,22.85
2022-10-12T09:35:32.320Z,18.77
2022-10-12T09:37:58.757Z,16.83
2022-10-12T09:40:31.157Z,19.33
2022-10-12T09:42:59.189Z,24.50
2022-10-12T09:45:26.048Z,19.85
2022-10-12T09:48:08.809Z,20.25
2022-10-12T09:50:58.228Z,19.48
2022-10-12T09:53:27.407Z,21.45
2022-10-12T09:55:58.579Z,21.67
2022-10-12T09:58:25.499Z,20.13
2022-10-12T10:01:11.157Z,22.85
2022-10-12T10:03:37.461Z,20.55
2022-10-12T10:06:04.690Z,20.40
2022-10-12T10:08:39.350Z,21.63
2022-10-12T10:11:05.901Z,20.67
2022-10-12T10:13:35.656Z,21.10
2022-10-12T10:16:06.507Z,20.77
2022-10-12T10:18:34.325Z,15.23
2022-10-12T10:21:01.689Z,21.98
2022-10-12T10:23:32.801Z,18.35
2022-10-12T10:26:01.852Z,18.67
2022-10-12T10:28:29.449Z,17.50
2022-10-12T10:30:57.457Z,17.35
2022-10-12T10:33:23.780Z,20.48
2022-10-12T10:35:54.290Z,15.77
2022-10-12T10:38:20.851Z,16.40
2022-10-12T10:40:51.619Z,15.57
2022-10-12T10:43:24.297Z,16.45
2022-10-12T10:45:52.568Z,16.92
2022-10-12T10:48:20.424Z,22.58
2022-10-12T10:50:56.443Z,13.88
2022-10-12T10:53:24.377Z,16.42
2022-10-12T10:56:01.008Z,19.65
2022-10-12T10:58:35.402Z,16.95
2022-10-12T11:01:31.126Z,18.45
2022-10-12T11:03:57.638Z,18.90
2022-10-12T11:06:38.662Z,16.25
2022-10-12T11:09:07.542Z,22.48
2022-10-12T11:11:36.152Z,16.88
2022-10-12T11:14:16.622Z,21.30
2022-10-12T11:16:45.925Z,16.52
2022-10-12T11:19:19.580Z,16.75
2022-10-12T11:21:48.538Z,16.70
2022-10-12T11:24:17.314Z,24.98
2022-10-12T11:26:46.260Z,17.48
2022-10-12T11:29:13.744Z,18.42
2022-10-12T11:31:44.288Z,18.35
2022-10-12T11:34:13.717Z,18.65
2022-10-12T11:36:55.792Z,14.82
2022-10-12T11:39:36.750Z,17.73
2022-10-12T11:42:22.204Z,23.73
2022-10-12T11:44:50.106Z,15.30
2022-10-12T11:47:30.656Z,17.73
2022-10-12T11:50:14.497Z,22.00
2022-10-12T11:52:43.656Z,16.92
2022-10-12T11:55:28.359Z,15.38
2022-10-12T11:57:55.854Z,18.42
2022-10-12T12:00:41.112Z,17.27
2022-10-12T12:03:10.513Z,13.23
2022-10-12T12:05:37.272Z,16.55
2022-10-12T12:08:03.619Z,15.52
2022-10-12T12:10:37.006Z,14.77
2022-10-12T12:13:17.773Z,13.15
2022-10-12T12:15:46.941Z,15.13
2022-10-12T12:18:20.265Z,18.05
2022-10-12T12:20:46.738Z,13.10
2022-10-12T12:23:28.269Z,16.95
2022-10-12T12:26:16.782Z,17.15
2022-10-12T12:28:48.259Z,15.68
2022-10-12T12:31:23.948Z,12.40
2022-10-12T12:34:10.628Z,14.57
2022-10-12T12:36:38.372Z,14.77
2022-10-12T12:39:06.192Z,18.88
2022-10-12T12:41:53.218Z,18.33
2022-10-12T12:44:33.663Z,14.93
2022-10-12T12:46:59.945Z,14.85
2022-10-12T12:49:28.208Z,15.50
2022-10-12T12:51:57.822Z,15.85
2022-10-12T12:54:24.158Z,16.95
2022-10-12T12:56:51.839Z,18.08
2022-10-12T12:59:21.141Z,14.05
2022-10-12T13:01:55.460Z,13.93
2022-10-12T13:04:35.842Z,15.85
2022-10-12T13:07:10.204Z,16.23
2022-10-12T13:09:45.372Z,15.80
2022-10-12T13:12:25.653Z,16.38
2022-10-12T13:14:51.989Z,16.80
2022-10-12T13:17:34.062Z,14.40
2022-10-12T13:20:16.397Z,15.93
2022-10-12T13:22:44.404Z,16.75
2022-10-12T13:25:15.028Z,15.82
2022-10-12T13:27:49.164Z,18.83
2022-10-12T13:30:21.653Z,17.45
2022-10-12T13:35:22.221Z,14.63
2022-10-12T13:37:59.580Z,14.90
2022-10-12T13:40:30.009Z,19.05
2022-10-12T13:42:56.320Z,19.02
2022-10-12T13:45:22.621Z,20.17
2022-10-12T13:47:48.937Z,23.17
2022-10-12T13:50:16.605Z,17.25
2022-10-12T13:52:51.084Z,17.70
2022-10-12T13:55:17.619Z,19.00
2022-10-12T13:57:49.972Z,15.48
2022-10-12T14:00:16.330Z,15.05
2022-10-12T14:02:43.369Z,15.32
2022-10-12T14:05:16.839Z,14.07
2022-10-12T14:07:44.439Z,17.55
2022-10-12T14:10:29.585Z,17.35
2022-10-12T14:12:56.245Z,20.58
2022-10-12T14:15:32.116Z,15.70
2022-10-12T14:17:58.429Z,16.52
2022-10-12T14:20:33.098Z,15.85
2022-10-12T14:22:59.910Z,13.45
2022-10-12T14:25:27.941Z,15.27
2022-10-12T14:27:55.949Z,14.07
2022-10-12T14:30:32.837Z,14.35
2022-10-12T14:33:10.630Z,11.93
2022-10-12T14:35:38.229Z,16.08
2022-10-12T14:38:24.557Z,12.52
2022-10-12T14:40:50.967Z,12.88
2022-10-12T14:43:17.246Z,13.93
2022-10-12T14:45:43.544Z,12.52
2022-10-12T14:48:13.900Z,10.63
2022-10-12T14:50:40.271Z,13.60
2022-10-12T14:53:09.536Z,12.50
2022-10-12T14:55:35.861Z,17.15
2022-10-12T14:58:02.585Z,14.05
2022-10-12T15:00:33.677Z,13.65
2022-10-12T15:03:00.153Z,11.00
2022-10-12T15:05:28.894Z,15.90
2022-10-12T15:07:55.240Z,17.75
2022-10-12T15:10:22.859Z,12.30
2022-10-12T15:12:49.498Z,19.98
2022-10-12T15:15:31.470Z,13.93
2022-10-12T15:17:58.266Z,13.70
2022-10-12T15:20:25.378Z,13.70
2022-10-12T15:22:51.681Z,12.77
2022-10-12T15:25:25.738Z,19.73
2022-10-12T15:27:52.084Z,16.52
2022-10-12T15:30:18.436Z,12.35
2022-10-12T15:32:44.798Z,13.63
2022-10-12T15:35:20.388Z,14.07
2022-10-12T15:37:46.998Z,10.10
2022-10-12T15:40:13.599Z,7.93
2022-10-12T15:42:40.021Z,11.60
2022-10-12T15:45:12.573Z,10.70
2022-10-12T15:50:05.464Z,9.25
2022-10-12T15:52:31.765Z,10.80
2022-10-12T15:54:58.105Z,10.25
2022-10-12T15:57:24.423Z,11.35
2022-10-12T15:59:52.330Z,12.25
2022-10-12T16:02:18.686Z,11.15
2022-10-12T16:04:45.065Z,10.40
2022-10-12T16:07:11.732Z,9.70
2022-10-12T16:09:38.315Z,12.00
2022-10-12T16:12:04.710Z,12.15
2022-10-12T16:14:31.140Z,12.18
2022-10-12T16:16:59.740Z,12.52
2022-10-12T16:19:26.069Z,16.92
2022-10-12T16:21:52.370Z,18.90
2022-10-12T16:24:18.684Z,17.85
2022-10-12T16:26:47.177Z,14.82
2022-10-12T16:29:13.567Z,9.85
2022-10-12T16:31:40.005Z,11.65
2022-10-12T16:34:06.425Z,14.68
2022-10-12T16:36:32.814Z,14.23
2022-10-12T16:39:01.492Z,16.75
2022-10-12T16:41:31.831Z,28.80
2022-10-12T16:44:00.525Z,25.20
2022-10-12T16:46:26.876Z,26.48
2022-10-12T16:48:53.221Z,27.15
2022-10-12T16:51:19.541Z,26.33
2022-10-12T16:53:45.969Z,30.75
2022-10-12T16:56:12.325Z,31.98
2022-10-12T16:58:38.631Z,34.58
2022-10-12T17:01:09.286Z,26.90
2022-10-12T17:03:35.761Z,19.75
2022-10-12T17:06:02.150Z,16.92
2022-10-12T17:08:31.308Z,18.42
2022-10-12T17:10:57.751Z,22.98
2022-10-12T17:13:25.592Z,19.42
2022-10-12T17:15:51.940Z,26.92
2022-10-12T17:18:18.289Z,23.50
2022-10-12T17:20:46.314Z,17.83
2022-10-12T17:23:14.629Z,19.63
2022-10-12T17:25:40.946Z,14.20
2022-10-12T17:28:07.289Z,24.45
2022-10-12T17:30:35.165Z,39.45
2022-10-12T17:33:01.486Z,54.15
2022-10-12T17:35:27.839Z,40.72
2022-10-12T17:37:54.257Z,26.60
2022-10-12T17:40:20.665Z,25.80
2022-10-12T17:42:47.015Z,28.33
2022-10-12T17:45:13.384Z,26.23
2022-10-12T17:47:39.859Z,21.67
2022-10-12T17:50:06.423Z,23.85
2022-10-12T17:52:36.840Z,12.73
2022-10-12T17:55:03.391Z,16.00
2022-10-12T17:57:29.820Z,14.77
2022-10-12T17:59:56.157Z,14.73
2022-10-12T18:02:22.586Z,12.45
2022-10-12T18:04:48.994Z,15.65
2022-10-12T18:07:15.769Z,17.60
2022-10-12T18:09:42.377Z,22.38
2022-10-12T18:12:08.829Z,17.40
2022-10-12T18:14:35.181Z,18.13
2022-10-12T18:17:01.622Z,19.48
2022-10-12T18:19:28.005Z,21.73
2022-10-12T18:21:54.449Z,16.10
2022-10-12T18:24:23.093Z,24.02
2022-10-12T18:26:49.590Z,63.03
2022-10-12T18:29:19.155Z,81.82
2022-10-12T18:31:45.568Z,93.00
2022-10-12T18:34:11.957Z,101.00
2022-10-12T18:36:39.816Z,143.95
2022-10-12T18:39:06.266Z,102.53
2022-10-12T18:41:32.850Z,121.80
2022-10-12T18:43:59.865Z,104.82
2022-10-12T18:46:27.203Z,101.15
2022-10-12T18:48:53.757Z,80.03
2022-10-12T18:51:20.168Z,85.15
2022-10-12T18:53:47.122Z,92.10
2022-10-12T18:56:13.515Z,85.35
2022-10-12T18:58:40.083Z,79.22
2022-10-12T19:01:10.569Z,86.78
2022-10-12T19:03:37.052Z,73.75
2022-10-12T19:06:04.796Z,59.30
2022-10-12T19:08:31.268Z,48.47
2022-10-12T19:10:57.796Z,37.55
2022-10-12T19:13:24.170Z,26.38
2022-10-12T19:15:50.514Z,21.08
2022-10-12T19:18:16.816Z,19.50
2022-10-12T19:20:43.183Z,19.33
2022-10-12T19:23:09.592Z,17.42
2022-10-12T19:25:39.812Z,19.83
2022-10-12T19:28:06.132Z,21.05
2022-10-12T19:30:32.514Z,19.70
2022-10-12T19:32:58.965Z,17.70
2022-10-12T19:35:25.368Z,19.75
2022-10-12T19:37:53.834Z,17.17
2022-10-12T19:40:20.241Z,15.55
2022-10-12T19:42:47.265Z,20.27
2022-10-12T19:45:14.195Z,19.45
2022-10-12T19:47:40.565Z,17.15
2022-10-12T19:50:08.094Z,15.35
2022-10-12T19:52:34.640Z,15.40
2022-10-12T19:55:00.985Z,15.82
2022-10-12T19:57:28.189Z,20.33
2022-10-12T19:59:54.609Z,21.55
2022-10-12T20:02:21.284Z,23.00
2022-10-12T20:04:53.661Z,14.95
2022-10-12T20:07:20.745Z,22.67
2022-10-12T20:09:48.020Z,20.35
2022-10-12T20:12:14.435Z,25.60
2022-10-12T20:14:41.330Z,65.60
2022-10-12T20:17:07.794Z,57.83
2022-10-12T20:19:34.145Z,43.15
2022-10-12T20:22:00.568Z,37.30
2022-10-12T20:24:26.883Z,24.00
2022-10-12T20:26:53.209Z,20.13
2022-10-12T20:29:19.549Z,22.95
2022-10-12T20:31:45.878Z,39.92
2022-10-12T20:34:12.261Z,25.15
2022-10-12T20:36:38.561Z,17.42
2022-10-12T20:39:05.007Z,22.42
2022-10-12T20:41:31.476Z,15.52
2022-10-12T20:43:58.561Z,18.35
2022-10-12T20:46:25.251Z,18.80
2022-10-12T20:48:54.675Z,18.75
2022-10-12T20:51:26.101Z,17.77
2022-10-12T20:53:52.535Z,16.90
2022-10-12T20:56:19.257Z,18.75
2022-10-12T20:58:45.714Z,20.30
2022-10-12T21:01:14.127Z,25.17
2022-10-12T21:03:41.097Z,18.45
2022-10-12T21:06:12.041Z,32.65
2022-10-12T21:08:38.855Z,34.28
2022-10-12T21:11:05.748Z,23.95
2022-10-12T21:13:33.181Z,22.73
2022-10-12T21:15:59.702Z,25.25
2022-10-12T21:18:26.330Z,24.30
2022-10-12T21:20:53.445Z,29.45
2022-10-12T21:23:19.826Z,23.95
2022-10-12T21:25:46.128Z,16.55
2022-10-12T21:28:12.555Z,23.17
2022-10-12T21:30:38.889Z,20.90
2022-10-12T21:33:05.238Z,19.60
2022-10-12T21:35:31.547Z,19.48
2022-10-12T21:37:57.890Z,19.95
2022-10-12T21:40:24.319Z,23.73
2022-10-12T21:42:50.649Z,20.15
2022-10-12T21:45:17.016Z,19.23
2022-10-12T21:47:43.449Z,18.27
2022-10-12T21:50:10.057Z,13.93
2022-10-12T21:52:36.405Z,18.73
2022-10-12T21:55:02.852Z,15.38
2022-10-12T21:57:29.273Z,24.08
2022-10-12T21:59:55.687Z,20.05
2022-10-12T22:02:22.321Z,27.75
2022-10-12T22:04:48.758Z,27.40
2022-10-12T22:07:15.110Z,23.25
2022-10-12T22:09:43.924Z,26.70
2022-10-12T22:12:10.268Z,22.00
2022-10-12T22:14:36.645Z,23.50
2022-10-12T22:17:03.074Z,24.17
2022-10-12T22:19:30.953Z,21.42
2022-10-12T22:21:57.300Z,27.42
2022-10-12T22:24:27.063Z,21.63
2022-10-12T22:26:53.500Z,18.38
2022-10-12T22:29:20.432Z,21.20
2022-10-12T22:31:46.819Z,22.67
2022-10-12T22:34:14.952Z,25.90
2022-10-12T22:36:41.309Z,24.55
2022-10-12T22:39:07.842Z,23.45
2022-10-12T22:41:34.233Z,24.08
2022-10-12T22:44:01.609Z,19.63
2022-10-12T22:46:27.932Z,20.05
2022-10-12T22:48:54.646Z,19.15
2022-10-12T22:51:31.544Z,18.23
2022-10-12T22:53:58.211Z,21.05
2022-10-12T22:56:24.709Z,19.10
2022-10-12T22:59:01.427Z,18.25
2022-10-12T23:01:28.393Z,20.90
2022-10-12T23:03:55.061Z,18.73
2022-10-12T23:06:21.621Z,19.08
2022-10-12T23:08:48.201Z,22.42
2022-10-12T23:11:16.014Z,20.35
2022-10-12T23:13:42.774Z,24.67
2022-10-12T23:16:10.912Z,20.40
2022-10-12T23:18:37.703Z,19.98
2022-10-12T23:21:11.881Z,17.23
2022-10-12T23:23:38.908Z,22.60
2022-10-12T23:26:06.865Z,22.63
2022-10-12T23:28:33.306Z,16.33
2022-10-12T23:31:01.922Z,17.73
2022-10-12T23:33:28.533Z,17.15
2022-10-12T23:35:56.229Z,16.83
2022-10-12T23:38:22.649Z,19.65
2022-10-12T23:40:50.473Z,24.45
2022-10-12T23:43:17.872Z,21.45
2022-10-12T23:45:44.488Z,17.52
2022-10-12T23:48:10.866Z,20.75
2022-10-12T23:50:38.352Z,18.80
2022-10-12T23:53:05.385Z,18.45
2022-10-12T23:55:32.717Z,21.48
2022-10-12T23:57:59.114Z,20.70
